Time;durP1;ratioP1;P1;durP2;ratioP2;P2;SDS_P1;SDS_P2;PMS_P1;PMS_P2;Temp;Humidity;BMP_temperature;BMP_pressure;BME280_temperature;BME280_humidity;BME280_pressure;Samples;Min_cycle;Max_cycle;Signal;HPM_P1;HPM_P2
2023/12/13 00:02:11;;;;;;;3.03;0.90;;;8.50;99.90;;;;;;7376562;19;20010;-69
2023/12/13 00:04:44;;;;;;;1.70;1.00;;;8.40;99.90;;;;;;7375579;19;20017;-68
2023/12/13 00:07:14;;;;;;;3.80;1.13;;;8.40;99.90;;;;;;7375541;19;20045;-69
2023/12/13 00:09:44;;;;;;;6.57;1.02;;;8.30;99.90;;;;;;7376780;19;20018;-69
2023/12/13 00:12:14;;;;;;;3.85;1.17;;;8.20;99.90;;;;;;7376201;19;20036;-69
2023/12/13 00:14:44;;;;;;;3.70;1.05;;;8.20;99.90;;;;;;7375044;19;20027;-69
2023/12/13 00:17:14;;;;;;;3.13;1.30;;;8.10;99.90;;;;;;7374837;19;20011;-70
2023/12/13 00:19:47;;;;;;;2.30;1.10;;;8.00;99.90;;;;;;7375761;19;20527;-69
2023/12/13 00:22:17;;;;;;;2.85;1.00;;;7.90;99.90;;;;;;7375012;19;20730;-69
2023/12/13 00:24:47;;;;;;;1.73;0.90;;;7.80;99.90;;;;;;7375384;19;20010;-69
2023/12/13 00:27:17;;;;;;;4.63;1.02;;;7.70;99.90;;;;;;7374710;19;20007;-69
2023/12/13 00:29:47;;;;;;;3.08;0.98;;;7.70;99.90;;;;;;7374257;19;20015;-68
2023/12/13 00:32:17;;;;;;;4.53;1.00;;;7.60;99.90;;;;;;7374420;19;20014;-69
2023/12/13 00:34:49;;;;;;;4.35;1.02;;;7.60;99.90;;;;;;7373956;19;20027;-70
2023/12/13 00:37:19;;;;;;;2.95;1.10;;;7.50;99.90;;;;;;7374833;19;20078;-69
2023/12/13 00:39:49;;;;;;;4.50;1.08;;;7.50;99.90;;;;;;7374528;19;20385;-70
2023/12/13 00:42:19;;;;;;;3.13;1.00;;;7.50;99.90;;;;;;7374373;19;20658;-70
2023/12/13 00:44:49;;;;;;;3.28;1.10;;;7.40;99.90;;;;;;7377579;19;20018;-70
2023/12/13 00:47:19;;;;;;;1.67;0.93;;;7.40;99.90;;;;;;7375524;19;20003;-70
2023/12/13 00:49:52;;;;;;;2.22;1.00;;;7.40;99.90;;;;;;7377807;19;20035;-70
2023/12/13 00:52:22;;;;;;;1.90;1.40;;;7.40;99.90;;;;;;7372576;19;20742;-69
2023/12/13 00:54:52;;;;;;;1.48;0.90;;;7.40;99.90;;;;;;7374284;19;20015;-70
2023/12/13 00:57:22;;;;;;;6.18;1.40;;;7.50;99.90;;;;;;7374354;19;20007;-69
2023/12/13 00:59:52;;;;;;;1.33;1.23;;;7.40;99.90;;;;;;7374185;19;20014;-70
2023/12/13 01:02:22;;;;;;;3.63;1.40;;;7.50;99.90;;;;;;7376933;19;20011;-70
2023/12/13 01:04:55;;;;;;;3.10;1.40;;;7.50;99.90;;;;;;7375989;19;20359;-70
2023/12/13 01:07:25;;;;;;;3.28;1.85;;;7.50;99.90;;;;;;7369236;19;20003;-70
2023/12/13 01:09:55;;;;;;;2.95;1.60;;;7.40;99.90;;;;;;7374909;19;20026;-70
2023/12/13 01:12:25;;;;;;;2.67;1.60;;;7.50;99.90;;;;;;7376827;19;20026;-69
2023/12/13 01:14:55;;;;;;;3.70;1.70;;;7.50;99.90;;;;;;7371414;19;20756;-70
2023/12/13 01:17:25;;;;;;;1.50;1.20;;;7.50;99.90;;;;;;7375158;19;20053;-70
2023/12/13 01:19:58;;;;;;;2.80;1.60;;;7.50;99.90;;;;;;7372664;19;20395;-70
2023/12/13 01:22:30;;;;;;;3.78;2.10;;;7.50;99.90;;;;;;7374085;19;20019;-70
2023/12/13 01:25:00;;;;;;;5.90;2.17;;;7.50;99.90;;;;;;7376516;19;20010;-70
2023/12/13 01:27:30;;;;;;;6.35;2.42;;;7.60;99.90;;;;;;7373385;19;20373;-69
2023/12/13 01:30:01;;;;;;;3.83;2.65;;;7.70;99.90;;;;;;7374029;19;20137;-70
2023/12/13 01:32:32;;;;;;;3.28;1.80;;;7.80;99.90;;;;;;7374707;19;20038;-68
2023/12/13 01:35:05;;;;;;;3.80;1.70;;;7.80;99.90;;;;;;7374861;19;20040;-68
2023/12/13 01:37:35;;;;;;;4.13;1.77;;;7.80;99.90;;;;;;7372564;19;20014;-69
2023/12/13 01:40:08;;;;;;;3.30;1.63;;;7.90;99.90;;;;;;7373340;19;20046;-69
2023/12/13 01:42:40;;;;;;;6.45;1.30;;;7.80;99.90;;;;;;7374027;19;20037;-70
2023/12/13 01:45:11;;;;;;;3.70;1.75;;;7.80;99.90;;;;;;7378618;19;20413;-69
2023/12/13 01:47:42;;;;;;;3.60;1.85;;;7.80;99.90;;;;;;7380059;19;20007;-69
2023/12/13 01:50:15;;;;;;;4.00;1.70;;;7.80;99.90;;;;;;7381223;19;20018;-69
2023/12/13 01:52:47;;;;;;;5.60;1.75;;;7.90;99.90;;;;;;7380595;19;20110;-69
2023/12/13 01:55:17;;;;;;;3.83;1.80;;;7.80;99.90;;;;;;7380690;19;20010;-69
2023/12/13 01:57:48;;;;;;;4.45;1.65;;;7.80;99.90;;;;;;7379471;19;20011;-69
2023/12/13 02:00:19;;;;;;;4.82;1.75;;;7.80;99.90;;;;;;7380594;19;20014;-69
2023/12/13 02:02:50;;;;;;;5.13;1.77;;;7.80;99.90;;;;;;7380354;19;20014;-69
2023/12/13 02:05:26;;;;;;;5.85;1.23;;;7.80;99.90;;;;;;7379347;19;20761;-69
2023/12/13 02:07:56;;;;;;;3.17;0.80;;;7.80;99.90;;;;;;7377949;19;20010;-69
2023/12/13 02:10:26;;;;;;;4.85;0.95;;;7.80;99.90;;;;;;7379958;19;20022;-69
2023/12/13 02:12:57;;;;;;;2.38;0.95;;;7.80;99.90;;;;;;7380575;19;20014;-70
2023/12/13 02:15:27;;;;;;;3.38;0.95;;;7.80;99.90;;;;;;7380639;19;20007;-70
2023/12/13 02:17:57;;;;;;;3.08;0.90;;;7.80;99.90;;;;;;7377745;19;20798;-70
2023/12/13 02:20:30;;;;;;;2.10;1.10;;;7.90;99.90;;;;;;7381863;19;20077;-69
2023/12/13 02:23:03;;;;;;;2.47;1.02;;;7.90;99.90;;;;;;7378068;19;20014;-69
2023/12/13 02:25:38;;;;;;;1.98;0.90;;;7.90;99.90;;;;;;7379338;19;20491;-70
2023/12/13 02:28:08;;;;;;;9.65;1.73;;;7.90;99.90;;;;;;7378388;19;20010;-70
2023/12/13 02:30:39;;;;;;;3.33;1.08;;;7.90;99.90;;;;;;7379855;19;20082;-70
2023/12/13 02:33:09;;;;;;;3.22;1.30;;;7.90;99.90;;;;;;7381095;19;20024;-69
2023/12/13 02:35:39;;;;;;;3.47;0.90;;;7.80;99.90;;;;;;7379356;19;20006;-69
2023/12/13 02:38:12;;;;;;;3.42;1.13;;;7.80;99.90;;;;;;7379098;19;20011;-69
2023/12/13 02:40:42;;;;;;;4.25;1.30;;;7.80;99.90;;;;;;7379354;19;20007;-70
2023/12/13 02:43:12;;;;;;;4.32;1.48;;;7.80;99.90;;;;;;7378664;19;20117;-69
2023/12/13 02:45:42;;;;;;;4.18;1.67;;;7.80;99.90;;;;;;7378594;19;20010;-70
2023/12/13 02:48:12;;;;;;;2.95;1.20;;;7.80;99.90;;;;;;7377895;19;20471;-69
2023/12/13 02:50:42;;;;;;;3.70;1.10;;;7.80;99.90;;;;;;7378446;19;20017;-69
2023/12/13 02:53:15;;;;;;;4.78;1.30;;;7.80;99.90;;;;;;7379780;19;20456;-70
2023/12/13 02:55:45;;;;;;;3.33;1.30;;;7.80;99.90;;;;;;7375225;19;20012;-70
2023/12/13 02:58:15;;;;;;;2.78;1.00;;;7.80;99.90;;;;;;7377495;19;20022;-69
2023/12/13 03:00:45;;;;;;;3.70;1.23;;;7.80;99.90;;;;;;7379260;19;20035;-70
2023/12/13 03:03:15;;;;;;;3.33;1.27;;;7.80;99.90;;;;;;7378314;19;20014;-69
2023/12/13 03:05:45;;;;;;;2.35;1.10;;;7.80;99.90;;;;;;7378304;19;20018;-69
2023/12/13 03:08:20;;;;;;;4.07;1.20;;;7.80;99.90;;;;;;7377544;19;20015;-69
2023/12/13 03:10:50;;;;;;;3.50;1.33;;;7.80;99.90;;;;;;7378034;19;20013;-69
2023/12/13 03:13:20;;;;;;;6.03;1.40;;;7.70;99.90;;;;;;7378737;19;20114;-69
2023/12/13 03:15:50;;;;;;;2.95;1.33;;;7.80;99.90;;;;;;7377426;19;20023;-69
2023/12/13 03:18:20;;;;;;;3.22;1.20;;;7.80;99.90;;;;;;7376774;19;20051;-68
2023/12/13 03:20:50;;;;;;;3.88;1.55;;;7.80;99.90;;;;;;7376836;19;20035;-69
2023/12/13 03:23:23;;;;;;;5.18;1.33;;;7.80;99.90;;;;;;7377989;19;20015;-69
2023/12/13 03:25:52;;;;;;;3.17;1.35;;;7.80;99.90;;;;;;7376164;19;20039;-69
2023/12/13 03:28:23;;;;;;;8.68;1.75;;;7.80;99.90;;;;;;7376543;19;20024;-69
2023/12/13 03:30:53;;;;;;;3.50;1.20;;;7.80;99.90;;;;;;7376366;19;20011;-69
2023/12/13 03:33:23;;;;;;;4.65;1.30;;;7.70;99.90;;;;;;7376551;19;20018;-69
2023/12/13 03:35:53;;;;;;;3.00;1.10;;;7.80;99.90;;;;;;7376494;19;20031;-69
2023/12/13 03:38:26;;;;;;;4.70;1.20;;;7.70;99.90;;;;;;7375594;19;20010;-69
2023/12/13 03:40:56;;;;;;;3.05;1.17;;;7.80;99.90;;;;;;7376745;19;20018;-69
2023/12/13 03:43:26;;;;;;;7.00;1.40;;;7.70;99.90;;;;;;7376264;19;20019;-69
2023/12/13 03:45:56;;;;;;;6.88;1.10;;;7.70;99.90;;;;;;7375884;19;20489;-68
2023/12/13 03:48:25;;;;;;;3.45;0.98;;;7.70;99.90;;;;;;7375689;19;20010;-70
2023/12/13 03:50:56;;;;;;;4.25;1.02;;;7.70;99.90;;;;;;7376175;19;20017;-70
2023/12/13 03:53:28;;;;;;;3.15;1.05;;;7.70;99.90;;;;;;7377571;19;20011;-69
2023/12/13 03:55:58;;;;;;;3.33;0.98;;;7.70;99.90;;;;;;7375996;19;20479;-69
2023/12/13 03:58:28;;;;;;;5.13;0.98;;;7.70;99.90;;;;;;7377572;19;20026;-69
2023/12/13 04:00:59;;;;;;;3.47;1.13;;;7.70;99.90;;;;;;7376668;19;20010;-69
2023/12/13 04:03:29;;;;;;;6.20;1.20;;;7.60;99.90;;;;;;7378785;19;20011;-69
2023/12/13 04:05:59;;;;;;;5.82;1.25;;;7.60;99.90;;;;;;7375676;19;20019;-69
2023/12/13 04:08:32;;;;;;;5.15;1.35;;;7.60;99.90;;;;;;7375814;19;20433;-69
2023/12/13 04:11:02;;;;;;;5.80;1.10;;;7.60;99.90;;;;;;7377290;19;20496;-69
2023/12/13 04:13:32;;;;;;;6.50;1.33;;;7.50;99.90;;;;;;7377088;19;20013;-69
2023/12/13 04:16:03;;;;;;;2.45;1.48;;;7.40;99.90;;;;;;7374083;19;20070;-69
2023/12/13 04:18:33;;;;;;;2.55;1.20;;;7.40;99.90;;;;;;7376146;19;20011;-69
2023/12/13 04:21:03;;;;;;;2.88;1.77;;;7.30;99.90;;;;;;7376829;19;20009;-69
2023/12/13 04:23:36;;;;;;;5.80;1.75;;;7.30;99.90;;;;;;7376657;19;20007;-69
2023/12/13 04:26:06;;;;;;;3.22;1.30;;;7.20;99.90;;;;;;7377172;19;20019;-69
2023/12/13 04:28:36;;;;;;;3.83;1.52;;;7.20;99.90;;;;;;7375873;19;20009;-69
2023/12/13 04:31:07;;;;;;;4.70;1.65;;;7.10;99.90;;;;;;7374485;19;20010;-69
2023/12/13 04:33:37;;;;;;;5.30;1.65;;;7.20;99.90;;;;;;7377297;19;20010;-69
2023/12/13 04:36:09;;;;;;;7.00;1.70;;;7.20;99.90;;;;;;7376795;19;20006;-69
2023/12/13 04:38:42;;;;;;;5.68;1.50;;;7.20;99.90;;;;;;7377069;19;20002;-69
2023/12/13 04:41:12;;;;;;;5.53;1.60;;;7.20;99.90;;;;;;7377450;19;20086;-69
2023/12/13 04:43:42;;;;;;;2.55;1.58;;;7.20;99.90;;;;;;7375884;19;20021;-69
2023/12/13 04:46:12;;;;;;;4.30;2.13;;;7.30;99.90;;;;;;7377249;19;20010;-69
2023/12/13 04:48:42;;;;;;;5.80;2.40;;;7.30;99.90;;;;;;7375512;19;20074;-69
2023/12/13 04:51:12;;;;;;;4.65;1.73;;;7.30;99.90;;;;;;7377029;19;20475;-69
2023/12/13 04:53:45;;;;;;;5.03;2.20;;;7.30;99.90;;;;;;7375566;19;20550;-69
2023/12/13 04:56:15;;;;;;;3.83;2.30;;;7.30;99.90;;;;;;7376986;19;20031;-69
2023/12/13 04:58:45;;;;;;;5.28;1.85;;;7.30;99.90;;;;;;7377138;19;20029;-69
2023/12/13 05:01:15;;;;;;;4.97;2.63;;;7.20;99.90;;;;;;7377687;19;20010;-68
2023/12/13 05:03:45;;;;;;;5.88;2.53;;;7.20;99.90;;;;;;7375984;19;20018;-69
2023/12/13 05:06:15;;;;;;;6.40;3.13;;;7.20;99.90;;;;;;7375846;19;20019;-69
2023/12/13 05:08:49;;;;;;;5.82;2.85;;;7.30;99.90;;;;;;7376268;19;20017;-69
2023/12/13 05:11:19;;;;;;;4.80;2.42;;;7.30;99.90;;;;;;7375444;19;20019;-69
2023/12/13 05:13:49;;;;;;;5.00;2.28;;;7.30;99.90;;;;;;7374698;19;20010;-69
2023/12/13 05:16:20;;;;;;;5.82;2.10;;;7.30;99.90;;;;;;7373617;19;20006;-69
2023/12/13 05:18:50;;;;;;;6.10;2.83;;;7.30;99.90;;;;;;7375058;19;20422;-69
2023/12/13 05:21:21;;;;;;;6.38;2.70;;;7.40;99.90;;;;;;7382686;19;20109;-69
2023/12/13 05:23:54;;;;;;;8.50;2.95;;;7.40;99.90;;;;;;7381644;19;20014;-69
2023/12/13 05:26:24;;;;;;;5.07;3.15;;;7.40;99.90;;;;;;7381674;19;20011;-69
2023/12/13 05:28:54;;;;;;;9.40;3.45;;;7.40;99.90;;;;;;7382028;19;20376;-69
2023/12/13 05:31:25;;;;;;;5.72;3.10;;;7.40;99.90;;;;;;7382538;19;20003;-69
2023/12/13 05:33:55;;;;;;;5.78;3.05;;;7.40;99.90;;;;;;7382553;19;20759;-69
2023/12/13 05:36:25;;;;;;;3.92;2.30;;;7.50;99.90;;;;;;7383242;19;20014;-69
2023/12/13 05:38:58;;;;;;;5.30;2.30;;;7.40;99.90;;;;;;7382191;19;20010;-69
2023/12/13 05:41:28;;;;;;;7.68;2.42;;;7.40;99.90;;;;;;7382611;19;20421;-69
2023/12/13 05:43:58;;;;;;;5.93;3.00;;;7.40;99.90;;;;;;7381637;19;20015;-69
2023/12/13 05:46:33;;;;;;;4.60;2.60;;;7.40;99.90;;;;;;7381257;19;20015;-70
2023/12/13 05:49:05;;;;;;;7.35;2.85;;;7.40;99.90;;;;;;7382188;19;20015;-69
2023/12/13 05:51:39;;;;;;;5.65;2.75;;;7.40;99.90;;;;;;7377791;19;20011;-68
2023/12/13 05:54:11;;;;;;;8.85;3.30;;;7.40;99.90;;;;;;7381200;19;20040;-69
2023/12/13 05:56:41;;;;;;;4.28;2.67;;;7.30;99.90;;;;;;7380324;19;20015;-69
2023/12/13 05:59:11;;;;;;;6.57;3.10;;;7.40;99.90;;;;;;7379552;19;20535;-69
2023/12/13 06:01:42;;;;;;;11.35;3.22;;;7.30;99.90;;;;;;7380648;19;20014;-69
2023/12/13 06:04:12;;;;;;;8.10;3.65;;;7.30;99.90;;;;;;7380479;19;20019;-69
2023/12/13 06:06:45;;;;;;;9.57;4.63;;;7.30;99.90;;;;;;7378306;19;20014;-69
2023/12/13 06:09:18;;;;;;;22.15;10.82;;;7.30;99.90;;;;;;7380237;19;20017;-69
2023/12/13 06:11:48;;;;;;;8.27;3.83;;;7.30;99.90;;;;;;7380921;19;20030;-69
2023/12/13 06:14:18;;;;;;;7.30;3.50;;;7.30;99.90;;;;;;7380473;19;20014;-69
2023/12/13 06:16:48;;;;;;;7.03;3.60;;;7.30;99.90;;;;;;7379082;19;20771;-69
2023/12/13 06:19:18;;;;;;;5.13;3.17;;;7.30;99.90;;;;;;7379522;19;20006;-69
2023/12/13 06:21:48;;;;;;;6.70;2.83;;;7.40;99.90;;;;;;7379464;19;20011;-68
2023/12/13 06:24:24;;;;;;;3.97;2.55;;;7.30;99.90;;;;;;7379511;19;20015;-68
2023/12/13 06:26:54;;;;;;;9.73;2.40;;;7.40;99.90;;;;;;7380188;19;20074;-69
2023/12/13 06:29:24;;;;;;;6.10;3.25;;;7.40;99.90;;;;;;7379290;19;20431;-68
2023/12/13 06:31:54;;;;;;;5.40;2.30;;;7.40;99.90;;;;;;7378351;19;20104;-69
2023/12/13 06:34:24;;;;;;;7.20;2.90;;;7.40;99.90;;;;;;7377620;19;20023;-69
2023/12/13 06:36:54;;;;;;;4.80;3.03;;;7.30;99.90;;;;;;7380152;19;20013;-69
2023/12/13 06:39:26;;;;;;;5.70;2.80;;;7.20;99.90;;;;;;7378285;19;20030;-69
2023/12/13 06:41:56;;;;;;;6.38;2.90;;;7.20;99.90;;;;;;7378595;19;19998;-69
2023/12/13 06:44:27;;;;;;;4.78;2.60;;;7.20;99.90;;;;;;7379165;19;20019;-70
2023/12/13 06:46:57;;;;;;;5.45;2.28;;;7.30;99.90;;;;;;7376954;19;20019;-69
2023/12/13 06:49:30;;;;;;;4.18;2.20;;;7.20;99.90;;;;;;7377897;19;20081;-69
2023/12/13 06:52:01;;;;;;;6.22;2.80;;;7.30;99.90;;;;;;7378802;19;20479;-69
2023/12/13 06:54:33;;;;;;;4.45;2.60;;;7.30;99.90;;;;;;7376286;19;20015;-70
2023/12/13 06:57:03;;;;;;;4.88;2.38;;;7.30;99.90;;;;;;7377154;19;20009;-69
2023/12/13 06:59:33;;;;;;;5.32;2.47;;;7.30;99.90;;;;;;7376492;19;20015;-69
2023/12/13 07:02:03;;;;;;;3.45;2.05;;;7.30;99.90;;;;;;7377745;19;20040;-69
2023/12/13 07:04:35;;;;;;;5.32;2.22;;;7.30;99.90;;;;;;7377117;19;20007;-70
2023/12/13 07:07:06;;;;;;;4.35;2.40;;;7.30;99.90;;;;;;7377757;19;20021;-69
2023/12/13 07:09:38;;;;;;;4.00;2.50;;;7.30;99.90;;;;;;7377683;19;20018;-69
2023/12/13 07:12:09;;;;;;;6.82;2.90;;;7.40;99.90;;;;;;7376175;19;20708;-68
2023/12/13 07:14:39;;;;;;;3.25;2.00;;;7.50;99.90;;;;;;7375264;19;20027;-70
2023/12/13 07:17:09;;;;;;;4.88;2.35;;;7.40;99.90;;;;;;7376355;19;20010;-69
2023/12/13 07:19:39;;;;;;;4.07;2.40;;;7.40;99.90;;;;;;7377977;19;20011;-69
2023/12/13 07:22:10;;;;;;;3.97;2.00;;;7.50;99.90;;;;;;7378073;19;20701;-69
2023/12/13 07:24:43;;;;;;;4.20;2.47;;;7.50;99.90;;;;;;7376799;19;20023;-70
2023/12/13 07:27:13;;;;;;;4.38;2.08;;;7.50;99.90;;;;;;7376119;19;20022;-69
2023/12/13 07:29:43;;;;;;;3.10;2.05;;;7.60;99.90;;;;;;7377714;19;20021;-69
2023/12/13 07:32:13;;;;;;;3.03;2.00;;;7.60;99.90;;;;;;7377826;19;20827;-69
2023/12/13 07:34:44;;;;;;;3.30;1.67;;;7.70;99.90;;;;;;7376336;19;20097;-70
2023/12/13 07:37:14;;;;;;;4.45;2.30;;;7.70;99.90;;;;;;7378046;19;20002;-69
2023/12/13 07:39:47;;;;;;;3.45;1.63;;;7.70;99.90;;;;;;7378121;19;20425;-68
2023/12/13 07:42:17;;;;;;;3.45;1.83;;;7.70;99.90;;;;;;7375494;19;20010;-70
2023/12/13 07:44:47;;;;;;;2.80;1.42;;;7.80;99.90;;;;;;7377070;19;20094;-67
2023/12/13 07:47:17;;;;;;;3.78;1.35;;;7.80;99.90;;;;;;7375257;19;20010;-69
2023/12/13 07:49:47;;;;;;;4.10;2.90;;;7.80;99.90;;;;;;7375481;19;20392;-69
2023/12/13 07:52:18;;;;;;;3.05;1.73;;;7.90;99.90;;;;;;7376354;19;20010;-69
2023/12/13 07:54:52;;;;;;;3.03;1.60;;;7.90;99.90;;;;;;7374107;19;20088;-69
2023/12/13 07:57:22;;;;;;;2.10;1.20;;;7.90;99.90;;;;;;7376680;19;20015;-69
2023/12/13 07:59:52;;;;;;;3.22;1.33;;;7.90;99.90;;;;;;7375067;19;20091;-69
2023/12/13 08:02:23;;;;;;;4.50;1.52;;;7.90;99.90;;;;;;7377667;19;20470;-70
2023/12/13 08:05:02;;;;;;;2.35;1.08;;;8.00;99.90;;;;;;7375496;19;20025;-70
2023/12/13 08:07:32;;;;;;;2.70;0.90;;;8.00;99.90;;;;;;7374492;19;20011;-70
2023/12/13 08:10:06;;;;;;;1.75;1.02;;;8.00;99.90;;;;;;7376012;19;20022;-69
2023/12/13 08:12:36;;;;;;;2.78;1.15;;;8.00;99.90;;;;;;7376763;19;20473;-70
2023/12/13 08:15:07;;;;;;;4.20;1.20;;;8.00;94.60;;;;;;7375242;19;20018;-69
2023/12/13 08:17:37;;;;;;;3.30;1.15;;;8.10;89.00;;;;;;7375912;19;20744;-70
2023/12/13 08:20:09;;;;;;;1.60;0.90;;;8.10;77.70;;;;;;7375184;19;20484;-70
2023/12/13 08:22:39;;;;;;;4.72;1.05;;;8.10;73.40;;;;;;7374770;19;20015;-69
2023/12/13 08:25:12;;;;;;;6.00;1.23;;;8.20;63.50;;;;;;7377335;19;20018;-70
2023/12/13 08:27:42;;;;;;;15.95;8.32;;;8.20;66.00;;;;;;7376169;19;20007;-70
2023/12/13 08:30:12;;;;;;;9.75;1.77;;;8.20;69.40;;;;;;7375972;19;20351;-71
2023/12/13 08:32:42;;;;;;;4.70;1.40;;;8.20;70.50;;;;;;7374815;19;20036;-70
2023/12/13 08:35:12;;;;;;;1.20;0.80;;;8.30;77.60;;;;;;7374680;19;20104;-70
2023/12/13 08:37:42;;;;;;;2.60;1.25;;;8.20;78.60;;;;;;7375533;19;20093;-69
2023/12/13 08:40:16;;;;;;;3.75;1.27;;;8.30;74.80;;;;;;7375193;19;20015;-69
2023/12/13 08:42:46;;;;;;;5.90;1.60;;;8.30;51.40;;;;;;7375306;19;20372;-69
2023/12/13 08:45:16;;;;;;;2.58;1.30;;;8.40;57.30;;;;;;7375044;19;20014;-68
2023/12/13 08:47:46;;;;;;;6.15;1.63;;;8.40;58.00;;;;;;7374071;19;20482;-70
2023/12/13 08:50:17;;;;;;;2.58;1.40;;;8.40;69.40;;;;;;7374793;19;20049;-68
2023/12/13 08:52:47;;;;;;;4.60;1.77;;;8.40;71.80;;;;;;7374804;19;20036;-69
2023/12/13 08:55:20;;;;;;;3.72;1.70;;;8.40;78.70;;;;;;7381079;19;20600;-69
2023/12/13 08:57:50;;;;;;;2.83;1.27;;;8.40;75.50;;;;;;7378259;19;20006;-69
2023/12/13 09:00:20;;;;;;;4.18;1.40;;;8.40;75.90;;;;;;7382738;19;20871;-70
2023/12/13 09:02:50;;;;;;;4.57;1.90;;;8.40;77.10;;;;;;7380802;19;20014;-69
2023/12/13 09:05:20;;;;;;;6.38;1.88;;;8.50;83.40;;;;;;7379651;19;20015;-70
2023/12/13 09:07:50;;;;;;;4.53;1.52;;;8.50;85.30;;;;;;7379675;19;20006;-68
2023/12/13 09:10:23;;;;;;;2.35;1.20;;;8.60;88.60;;;;;;7379788;19;20390;-69
2023/12/13 09:12:53;;;;;;;3.30;1.23;;;8.60;82.90;;;;;;7382015;19;20462;-69
2023/12/13 09:15:23;;;;;;;1.20;1.00;;;8.60;76.10;;;;;;7381180;19;20002;-70
2023/12/13 09:17:53;;;;;;;3.53;1.30;;;8.70;78.70;;;;;;7379726;19;20336;-70
2023/12/13 09:20:23;;;;;;;9.80;6.15;;;8.70;82.10;;;;;;7379248;19;20017;-70
2023/12/13 09:22:53;;;;;;;2.35;1.08;;;8.80;90.90;;;;;;7379270;19;20011;-70
2023/12/13 09:25:26;;;;;;;1.50;1.23;;;8.80;79.10;;;;;;7381042;19;20029;-69
2023/12/13 09:27:57;;;;;;;1.92;1.10;;;8.80;74.00;;;;;;7378887;19;20003;-69
2023/12/13 09:30:27;;;;;;;3.90;1.38;;;8.90;74.00;;;;;;7379465;19;20021;-69
2023/12/13 09:32:58;;;;;;;2.03;1.15;;;9.00;69.40;;;;;;7379818;19;20007;-70
2023/12/13 09:35:28;;;;;;;3.33;1.20;;;9.00;65.70;;;;;;7380517;19;20406;-69
2023/12/13 09:37:59;;;;;;;3.65;1.75;;;9.10;64.30;;;;;;7378721;19;20006;-70
2023/12/13 09:40:32;;;;;;;4.88;1.70;;;9.20;65.40;;;;;;7380803;19;20548;-68
2023/12/13 09:43:02;;;;;;;6.68;2.00;;;9.20;56.00;;;;;;7380827;19;20018;-68
2023/12/13 09:45:34;;;;;;;7.43;2.10;;;9.20;47.40;;;;;;7379627;19;20018;-70
2023/12/13 09:48:05;;;;;;;3.58;2.05;;;9.20;41.70;;;;;;7378704;19;20028;-69
2023/12/13 09:50:36;;;;;;;4.75;1.70;;;9.20;30.20;;;;;;7378463;19;20077;-70
2023/12/13 09:53:08;;;;;;;5.78;2.00;;;9.20;27.80;;;;;;7379044;19;20374;-69
2023/12/13 09:55:43;;;;;;;7.07;2.53;;;9.10;24.40;;;;;;7379690;19;20536;-69
2023/12/13 09:58:13;;;;;;;;;;;9.00;31.50;;;;;;7380159;19;21494;-71
2023/12/13 10:00:43;;;;;;;3.40;2.05;;;9.00;42.20;;;;;;7381261;19;20250;-70
2023/12/13 10:03:13;;;;;;;4.38;2.03;;;8.90;48.20;;;;;;7380455;19;20392;-71
2023/12/13 10:05:48;;;;;;;3.78;1.70;;;8.90;66.50;;;;;;7378902;19;20938;-68
2023/12/13 10:08:18;;;;;;;5.25;2.00;;;8.90;79.30;;;;;;7378497;19;20013;-68
2023/12/13 10:10:51;;;;;;;3.33;1.98;;;8.80;90.30;;;;;;7380210;19;20010;-69
2023/12/13 10:13:21;;;;;;;4.82;2.20;;;8.90;95.90;;;;;;7378929;19;20031;-69
2023/12/13 10:15:51;;;;;;;2.97;2.03;;;8.80;99.90;;;;;;7380033;19;20027;-69
2023/12/13 10:18:21;;;;;;;5.13;1.98;;;8.80;99.90;;;;;;7378827;19;20010;-69
2023/12/13 10:20:52;;;;;;;5.88;2.20;;;8.90;99.90;;;;;;7380064;19;20018;-69
2023/12/13 10:23:22;;;;;;;4.13;2.00;;;9.00;99.90;;;;;;7380434;19;20032;-69
2023/12/13 10:25:55;;;;;;;5.03;1.70;;;9.00;99.90;;;;;;7380082;19;20018;-69
2023/12/13 10:28:25;;;;;;;4.13;1.70;;;9.00;99.90;;;;;;7378394;19;20186;-69
2023/12/13 10:30:55;;;;;;;9.45;2.25;;;9.00;99.90;;;;;;7380146;19;20424;-70
2023/12/13 10:33:25;;;;;;;4.72;2.00;;;9.00;99.90;;;;;;7379272;19;20013;-70
2023/12/13 10:35:57;;;;;;;7.90;2.38;;;9.10;99.90;;;;;;7380147;19;20089;-69
2023/12/13 10:38:28;;;;;;;7.28;1.92;;;9.20;99.90;;;;;;7380959;19;20023;-69
2023/12/13 10:41:03;;;;;;;3.15;1.73;;;9.30;99.90;;;;;;7381169;19;20014;-69
2023/12/13 10:43:34;;;;;;;3.58;1.65;;;9.40;99.90;;;;;;7376838;19;20527;-69
2023/12/13 10:46:05;;;;;;;4.07;1.50;;;9.50;99.90;;;;;;7379212;19;20018;-69
2023/12/13 10:48:38;;;;;;;7.20;2.20;;;9.50;91.30;;;;;;7378548;19;20010;-69
2023/12/13 10:51:09;;;;;;;10.30;2.70;;;9.50;61.20;;;;;;7379756;19;20038;-69
2023/12/13 10:53:41;;;;;;;6.05;2.45;;;9.60;54.00;;;;;;7378146;19;20009;-69
2023/12/13 10:56:16;;;;;;;8.18;2.08;;;9.70;52.10;;;;;;7378572;19;20014;-69
2023/12/13 10:58:46;;;;;;;4.40;2.38;;;9.80;54.30;;;;;;7379240;19;20487;-69
2023/12/13 11:01:18;;;;;;;4.10;1.95;;;9.90;46.20;;;;;;7378974;19;20018;-70
2023/12/13 11:03:53;;;;;;;18.30;13.10;;;10.00;27.50;;;;;;7377574;19;20006;-69
2023/12/13 11:06:24;;;;;;;8.82;5.70;;;10.30;25.60;;;;;;7378285;19;20092;-69
2023/12/13 11:08:54;;;;;;;2.65;1.42;;;10.40;10.00;;;;;;7378271;19;20111;-70
2023/12/13 11:11:30;;;;;;;4.78;1.52;;;10.30;1.00;;;;;;7378269;19;20388;-70
2023/12/13 11:14:01;;;;;;;5.35;1.60;;;10.30;1.00;;;;;;7378204;19;20030;-70
2023/12/13 11:16:39;;;;;;;2.70;1.50;;;10.10;1.00;;;;;;7375588;19;20811;-68
2023/12/13 11:19:14;;;;;;;5.65;1.75;;;10.10;1.00;;;;;;7373785;19;20050;-69
2023/12/13 11:21:49;;;;;;;2.88;1.40;;;10.30;1.00;;;;;;7378332;19;20023;-69
2023/12/13 11:24:22;;;;;;;;;;;10.30;1.00;;;;;;7377918;19;20034;-69
2023/12/13 11:26:58;;;;;;;5.68;1.52;;;10.30;1.00;;;;;;7377563;19;19930;-69
2023/12/13 11:29:32;;;;;;;3.95;1.27;;;10.30;1.00;;;;;;7376372;19;20035;-70
2023/12/13 11:32:03;;;;;;;4.90;1.67;;;10.40;1.00;;;;;;7378057;19;20006;-69
2023/12/13 11:34:35;;;;;;;3.65;1.40;;;10.40;1.00;;;;;;7377513;19;20013;-69
2023/12/13 11:37:07;;;;;;;1.98;1.20;;;10.40;1.00;;;;;;7377207;19;20018;-69
2023/12/13 11:39:49;;;;;;;3.80;1.58;;;10.40;1.00;;;;;;7411711;19;20413;-70
2023/12/13 11:42:19;;;;;;;2.35;1.17;;;10.50;1.00;;;;;;7410471;19;20007;-69
2023/12/13 11:44:50;;;;;;;2.88;1.50;;;10.50;1.00;;;;;;7409185;19;20014;-71
2023/12/13 11:47:20;;;;;;;3.40;1.10;;;10.60;1.00;;;;;;7414001;19;20355;-69
2023/12/13 11:49:50;;;;;;;2.35;1.35;;;10.50;1.00;;;;;;7416708;19;20015;-69
2023/12/13 11:52:20;;;;;;;2.80;1.50;;;10.50;1.00;;;;;;7410764;19;20367;-70
2023/12/13 11:54:53;;;;;;;4.15;1.67;;;10.40;1.00;;;;;;7409125;19;20014;-70
2023/12/13 11:57:23;;;;;;;3.28;1.50;;;10.40;1.00;;;;;;7408582;19;20358;-70
2023/12/13 11:59:53;;;;;;;4.47;1.60;;;10.50;1.00;;;;;;7408671;19;20043;-69
2023/12/13 12:02:23;;;;;;;2.88;1.67;;;10.40;1.00;;;;;;7409521;19;20017;-69
2023/12/13 12:04:53;;;;;;;3.60;1.63;;;10.50;1.00;;;;;;7409325;19;20466;-69
2023/12/13 12:07:23;;;;;;;4.35;1.30;;;10.60;1.00;;;;;;7409453;19;20014;-69
2023/12/13 12:09:57;;;;;;;3.60;1.67;;;10.50;1.00;;;;;;7411865;19;20006;-69
2023/12/13 12:12:28;;;;;;;4.38;2.17;;;10.60;1.00;;;;;;7407197;19;20364;-70
2023/12/13 12:14:59;;;;;;;2.75;1.70;;;10.50;1.00;;;;;;7409405;19;20006;-70
2023/12/13 12:17:30;;;;;;;5.53;1.50;;;10.40;1.00;;;;;;7407646;19;20875;-69
2023/12/13 12:20:00;;;;;;;1.83;1.20;;;10.40;1.00;;;;;;7408855;19;20459;-69
2023/12/13 12:22:33;;;;;;;3.47;1.45;;;10.40;1.00;;;;;;7409521;19;20015;-70
2023/12/13 12:25:07;;;;;;;2.70;1.10;;;10.40;1.00;;;;;;7407787;19;20006;-70
2023/12/13 12:27:40;;;;;;;5.47;1.65;;;10.40;1.00;;;;;;7408661;19;20014;-70
2023/12/13 12:30:11;;;;;;;3.65;1.40;;;10.30;1.00;;;;;;7409527;19;20018;-69
2023/12/13 12:32:42;;;;;;;2.38;1.40;;;10.40;1.00;;;;;;7409637;19;20459;-70
2023/12/13 12:35:12;;;;;;;3.00;1.00;;;10.30;1.00;;;;;;7408745;19;20029;-69
2023/12/13 12:37:43;;;;;;;3.50;1.33;;;10.30;1.00;;;;;;7408734;19;20018;-69
2023/12/13 12:40:17;;;;;;;3.20;1.40;;;10.40;1.00;;;;;;7408801;19;20424;-69
2023/12/13 12:42:48;;;;;;;2.67;1.40;;;10.40;1.00;;;;;;7408536;19;20014;-69
2023/12/13 12:45:18;;;;;;;1.17;0.80;;;10.50;1.00;;;;;;7408956;19;20308;-69
2023/12/13 12:47:48;;;;;;;3.80;1.30;;;10.50;1.00;;;;;;7407944;19;20014;-68
2023/12/13 12:50:18;;;;;;;1.77;1.13;;;10.50;1.00;;;;;;7390513;19;20021;-69
2023/12/13 12:52:49;;;;;;;2.58;1.20;;;10.50;1.00;;;;;;7379909;19;20011;-68
2023/12/13 12:55:22;;;;;;;3.05;1.10;;;10.60;1.00;;;;;;7380300;19;20010;-69
2023/12/13 12:57:52;;;;;;;3.58;0.73;;;10.60;1.00;;;;;;7380095;19;20175;-70
2023/12/13 13:00:22;;;;;;;3.08;0.93;;;10.50;1.00;;;;;;7380240;19;20026;-69
2023/12/13 13:02:52;;;;;;;2.95;1.08;;;10.50;1.00;;;;;;7380139;19;20101;-69
2023/12/13 13:05:22;;;;;;;3.95;0.90;;;10.60;1.00;;;;;;7379388;19;20006;-69
2023/12/13 13:07:53;;;;;;;1.42;0.80;;;10.60;1.00;;;;;;7379977;19;20018;-70
2023/12/13 13:10:26;;;;;;;3.15;1.15;;;10.50;1.00;;;;;;7380241;19;20421;-69
2023/12/13 13:12:56;;;;;;;4.75;1.40;;;10.50;1.00;;;;;;7380099;19;20564;-69
2023/12/13 13:15:26;;;;;;;3.63;0.90;;;10.50;1.00;;;;;;7379552;19;20056;-69
2023/12/13 13:17:56;;;;;;;1.20;0.70;;;10.40;1.00;;;;;;7378419;19;20366;-71